createdAt,value
2019-05-07T00:01:23.901Z,98934.06
2019-05-07T00:03:54.157Z,98930.10
2019-05-07T00:06:25.990Z,98931.58
2019-05-07T00:08:56.902Z,98926.37
2019-05-07T00:11:27.200Z,98923.23
2019-05-07T00:13:57.495Z,98922.91
2019-05-07T00:16:27.829Z,98923.97
2019-05-07T00:18:58.057Z,98913.66
2019-05-07T00:21:28.606Z,98911.55
2019-05-07T00:23:58.912Z,98909.52
2019-05-07T00:26:29.205Z,98902.18
2019-05-07T00:28:59.479Z,98898.95
2019-05-07T00:31:29.734Z,98899.25
2019-05-07T00:34:00.356Z,98893.31
2019-05-07T00:36:39.176Z,98894.98
2019-05-07T00:39:28.398Z,98891.41
2019-05-07T00:42:05.815Z,98883.45
2019-05-07T00:44:56.118Z,98875.93
2019-05-07T00:47:26.632Z,98876.98
2019-05-07T00:50:03.284Z,98869.30
2019-05-07T00:52:33.617Z,98866.23
2019-05-07T00:55:03.961Z,98868.36
2019-05-07T00:57:34.220Z,98866.95
2019-05-07T01:00:04.750Z,98868.06
2019-05-07T01:02:35.111Z,98871.31
2019-05-07T01:05:05.813Z,98862.08
2019-05-07T01:07:36.035Z,98871.47
2019-05-07T01:10:07.437Z,98872.52
2019-05-07T01:12:37.748Z,98867.23
2019-05-07T01:15:08.335Z,98860.98
2019-05-07T01:17:38.856Z,98855.64
2019-05-07T01:20:09.047Z,98854.05
2019-05-07T01:22:39.271Z,98854.61
2019-05-07T01:25:09.942Z,98851.30
2019-05-07T01:27:42.519Z,98855.38
2019-05-07T01:30:13.009Z,98855.05
2019-05-07T01:33:02.893Z,98856.03
2019-05-07T01:35:52.875Z,98849.91
2019-05-07T01:38:23.172Z,98850.65
2019-05-07T01:40:53.401Z,98855.13
2019-05-07T01:43:23.652Z,98852.22
2019-05-07T01:45:53.960Z,98856.98
2019-05-07T01:48:24.289Z,98851.70
2019-05-07T01:50:54.495Z,98849.21
2019-05-07T01:53:24.816Z,98846.42
2019-05-07T01:55:55.057Z,98841.34
2019-05-07T01:58:27.163Z,98841.95
2019-05-07T02:00:57.430Z,98845.26
2019-05-07T02:03:38.954Z,98838.72
2019-05-07T02:06:18.244Z,98842.76
2019-05-07T02:09:03.613Z,98840.64
2019-05-07T02:11:39.632Z,98847.10
2019-05-07T02:14:09.843Z,98848.80
2019-05-07T02:19:38.187Z,98845.40
2019-05-07T02:22:08.466Z,98847.09
2019-05-07T02:24:38.763Z,98844.73
2019-05-07T02:27:08.960Z,98844.73
2019-05-07T02:29:39.566Z,98837.67
2019-05-07T02:32:13.043Z,98851.70
2019-05-07T02:34:44.200Z,98851.70
2019-05-07T02:37:17.446Z,98852.64
2019-05-07T02:40:06.710Z,98855.52
2019-05-07T02:42:36.899Z,98851.56
2019-05-07T02:45:28.895Z,98849.20
2019-05-07T02:47:59.208Z,98849.91
2019-05-07T02:50:43.490Z,98850.08
2019-05-07T02:53:44.405Z,98848.56
2019-05-07T02:56:14.641Z,98839.14
2019-05-07T02:58:44.852Z,98845.73
2019-05-07T03:01:15.293Z,98845.34
2019-05-07T03:03:45.552Z,98850.33
2019-05-07T03:06:15.759Z,98846.11
2019-05-07T03:08:47.066Z,98846.24
2019-05-07T03:11:17.741Z,98847.17
2019-05-07T03:13:48.216Z,98853.09
2019-05-07T03:16:35.382Z,98857.30
2019-05-07T03:18:53.301Z,98864.53
2019-05-07T03:21:23.519Z,98862.70
2019-05-07T03:24:13.968Z,98859.86
2019-05-07T03:26:46.023Z,98864.35
2019-05-07T03:29:19.937Z,98866.69
2019-05-07T03:32:18.445Z,98858.41
2019-05-07T03:34:58.724Z,98862.30
2019-05-07T03:37:35.751Z,98865.95
2019-05-07T03:40:03.816Z,98863.45
2019-05-07T03:42:34.615Z,98867.02
2019-05-07T03:45:33.485Z,98863.06
2019-05-07T03:48:17.813Z,98861.15
2019-05-07T03:50:48.181Z,98864.38
2019-05-07T03:53:18.401Z,98861.20
2019-05-07T03:55:48.701Z,98862.21
2019-05-07T03:58:19.295Z,98860.81
2019-05-07T04:00:49.556Z,98862.77
2019-05-07T04:03:24.455Z,98862.09
2019-05-07T04:05:53.713Z,98867.23
2019-05-07T04:08:24.109Z,98862.05
2019-05-07T04:10:54.459Z,98863.28
2019-05-07T04:13:25.152Z,98857.58
2019-05-07T04:15:55.494Z,98862.61
2019-05-07T04:18:26.353Z,98859.30
2019-05-07T04:20:56.644Z,98860.78
2019-05-07T04:23:27.283Z,98866.38
2019-05-07T04:26:15.498Z,98866.21
2019-05-07T04:28:54.174Z,98868.20
2019-05-07T04:31:26.459Z,98862.85
2019-05-07T04:33:59.097Z,98875.34
2019-05-07T04:36:34.164Z,98876.73
2019-05-07T04:39:04.902Z,98870.36
2019-05-07T04:41:35.297Z,98879.75
2019-05-07T04:44:05.748Z,98882.39
2019-05-07T04:46:36.052Z,98886.27
2019-05-07T04:49:17.605Z,98887.58
2019-05-07T04:51:53.852Z,98888.16
2019-05-07T04:54:24.079Z,98886.42
2019-05-07T04:56:54.746Z,98883.90
2019-05-07T04:59:25.486Z,98885.55
2019-05-07T05:02:04.189Z,98883.50
2019-05-07T05:04:35.190Z,98883.99
2019-05-07T05:07:05.468Z,98879.20
2019-05-07T05:09:37.124Z,98884.67
2019-05-07T05:12:07.371Z,98879.55
2019-05-07T05:14:37.613Z,98879.03
2019-05-07T05:17:07.837Z,98876.40
2019-05-07T05:19:38.345Z,98878.28
2019-05-07T05:22:43.250Z,98872.33
2019-05-07T05:25:24.414Z,98874.43
2019-05-07T05:27:54.756Z,98874.41
2019-05-07T05:30:47.084Z,98877.03
2019-05-07T05:33:18.083Z,98875.52
2019-05-07T05:35:48.369Z,98875.52
2019-05-07T05:38:18.926Z,98877.75
2019-05-07T05:40:49.135Z,98874.20
2019-05-07T05:43:32.066Z,98877.20
2019-05-07T05:46:03.378Z,98872.40
2019-05-07T05:48:33.619Z,98874.03
2019-05-07T05:51:22.794Z,98877.03
2019-05-07T05:54:07.899Z,98888.23
2019-05-07T05:56:56.408Z,98888.37
2019-05-07T05:59:52.134Z,98891.03
2019-05-07T06:02:47.287Z,98895.94
2019-05-07T06:05:41.610Z,98886.47
2019-05-07T06:08:32.560Z,98891.88
2019-05-07T06:11:25.108Z,98900.45
2019-05-07T06:14:17.441Z,98896.72
2019-05-07T06:16:54.250Z,98898.17
2019-05-07T06:19:30.142Z,98903.11
2019-05-07T06:22:26.213Z,98902.70
2019-05-07T06:25:14.842Z,98899.50
2019-05-07T06:27:45.563Z,98886.84
2019-05-07T06:30:17.351Z,98881.88
2019-05-07T06:32:47.947Z,98878.66
2019-05-07T06:35:19.475Z,98883.02
2019-05-07T06:37:52.013Z,98873.91
2019-05-07T06:40:37.835Z,98868.19
2019-05-07T06:43:17.533Z,98869.42
2019-05-07T06:45:51.880Z,98868.69
2019-05-07T06:48:37.721Z,98863.67
2019-05-07T06:50:57.554Z,98866.99
2019-05-07T06:53:29.108Z,98865.55
2019-05-07T06:56:02.845Z,98853.02
2019-05-07T06:58:52.660Z,98859.64
2019-05-07T07:01:37.720Z,98861.43
2019-05-07T07:04:13.315Z,98855.52
2019-05-07T07:07:22.474Z,98856.48
2019-05-07T07:10:02.956Z,98855.06
2019-05-07T07:12:33.436Z,98860.27
2019-05-07T07:15:03.963Z,98854.52
2019-05-07T07:17:34.196Z,98861.86
2019-05-07T07:20:05.557Z,98859.95
2019-05-07T07:22:35.769Z,98861.38
2019-05-07T07:25:06.780Z,98858.82
2019-05-07T07:27:37.388Z,98860.11
2019-05-07T07:30:22.927Z,98859.20
2019-05-07T07:32:53.653Z,98858.18
2019-05-07T07:35:24.070Z,98855.44
2019-05-07T07:37:54.663Z,98854.88
2019-05-07T07:40:52.659Z,98840.69
2019-05-07T07:43:22.214Z,98843.34
2019-05-07T07:45:52.647Z,98829.42
2019-05-07T07:48:24.924Z,98836.34
2019-05-07T07:50:54.894Z,98830.00
2019-05-07T07:53:25.165Z,98824.73
2019-05-07T07:56:13.201Z,98814.44
2019-05-07T07:59:05.375Z,98808.83
2019-05-07T08:01:52.973Z,98800.53
2019-05-07T08:04:23.625Z,98795.30
2019-05-07T08:07:03.269Z,98792.77
2019-05-07T08:09:35.888Z,98790.20
2019-05-07T08:12:07.967Z,98788.03
2019-05-07T08:14:38.241Z,98783.53
2019-05-07T08:17:09.277Z,98777.96
2019-05-07T08:19:39.766Z,98767.19
2019-05-07T08:22:12.023Z,98766.41
2019-05-07T08:24:42.807Z,98761.28
2019-05-07T08:27:15.188Z,98759.50
2019-05-07T08:29:45.059Z,98752.80
2019-05-07T08:32:42.588Z,98757.55
2019-05-07T08:35:32.645Z,98748.45
2019-05-07T08:38:03.109Z,98747.93
2019-05-07T08:40:33.440Z,98748.77
2019-05-07T08:43:03.661Z,98741.43
2019-05-07T08:45:52.479Z,98738.85
2019-05-07T08:48:28.494Z,98731.47
2019-05-07T08:50:58.758Z,98722.73
2019-05-07T08:53:28.965Z,98723.02
2019-05-07T08:55:59.233Z,98718.16
2019-05-07T08:58:31.750Z,98720.15
2019-05-07T09:01:03.048Z,98725.69
2019-05-07T09:03:45.474Z,98723.67
2019-05-07T09:06:17.657Z,98725.48
2019-05-07T09:08:48.159Z,98722.08
2019-05-07T09:11:18.523Z,98727.03
2019-05-07T09:13:48.775Z,98720.39
2019-05-07T09:16:19.013Z,98715.19
2019-05-07T09:18:50.300Z,98712.87
2019-05-07T09:21:22.688Z,98721.27
2019-05-07T09:23:52.695Z,98705.25
2019-05-07T09:26:28.661Z,98705.25
2019-05-07T09:29:14.503Z,98712.95
2019-05-07T09:32:03.077Z,98724.31
2019-05-07T09:34:37.759Z,98722.77
2019-05-07T09:37:10.004Z,98717.14
2019-05-07T09:39:42.738Z,98714.84
2019-05-07T09:42:13.157Z,98714.47
2019-05-07T09:44:43.350Z,98703.88
2019-05-07T09:47:13.611Z,98703.00
2019-05-07T09:49:43.960Z,98694.89
2019-05-07T09:52:14.264Z,98702.95
2019-05-07T09:54:44.518Z,98689.66
2019-05-07T09:57:27.679Z,98678.09
2019-05-07T09:59:47.991Z,98681.87
2019-05-07T10:02:18.603Z,98684.29
2019-05-07T10:04:49.915Z,98678.80
2019-05-07T10:07:22.308Z,98681.45
2019-05-07T10:09:52.614Z,98677.36
2019-05-07T10:12:32.963Z,98685.16
2019-05-07T10:15:03.646Z,98679.94
2019-05-07T10:18:01.855Z,98673.29
2019-05-07T10:20:33.711Z,98670.91
2019-05-07T10:23:04.025Z,98664.50
2019-05-07T10:25:40.327Z,98657.05
2019-05-07T10:28:12.544Z,98646.77
2019-05-07T10:30:42.948Z,98642.09
2019-05-07T10:33:13.220Z,98650.61
2019-05-07T10:35:43.558Z,98650.56
2019-05-07T10:38:14.066Z,98646.39
2019-05-07T10:40:44.800Z,98650.18
2019-05-07T10:43:15.422Z,98644.11
2019-05-07T10:46:03.881Z,98643.66
2019-05-07T10:48:51.576Z,98651.20
2019-05-07T10:51:21.912Z,98637.00
2019-05-07T10:53:52.269Z,98631.91
2019-05-07T10:56:22.539Z,98637.55
2019-05-07T10:58:53.211Z,98638.86
2019-05-07T11:01:32.873Z,98630.30
2019-05-07T11:04:03.182Z,98626.12
2019-05-07T11:06:33.449Z,98624.52
2019-05-07T11:09:04.595Z,98616.44
2019-05-07T11:11:36.753Z,98610.44
2019-05-07T11:14:07.048Z,98607.66
2019-05-07T11:16:44.288Z,98609.91
2019-05-07T11:19:14.652Z,98600.23
2019-05-07T11:21:44.928Z,98600.58
2019-05-07T11:24:15.144Z,98594.95
2019-05-07T11:26:45.381Z,98586.75
2019-05-07T11:29:16.274Z,98577.58
2019-05-07T11:31:46.488Z,98576.59
2019-05-07T11:34:16.829Z,98575.06
2019-05-07T11:36:47.542Z,98573.58
2019-05-07T11:39:18.080Z,98567.57
2019-05-07T11:42:06.201Z,98561.43
2019-05-07T11:44:36.751Z,98555.88
2019-05-07T11:47:22.527Z,98553.98
2019-05-07T11:50:14.369Z,98554.01
2019-05-07T11:52:45.902Z,98555.85
2019-05-07T11:55:16.473Z,98549.13
2019-05-07T11:57:46.673Z,98548.38
2019-05-07T12:00:34.506Z,98534.70
2019-05-07T12:03:06.481Z,98539.05
2019-05-07T12:05:36.804Z,98552.39
2019-05-07T12:08:07.003Z,98544.70
2019-05-07T12:10:37.252Z,98541.89
2019-05-07T12:13:07.878Z,98535.19
2019-05-07T12:15:38.536Z,98531.17
2019-05-07T12:18:08.785Z,98527.63
2019-05-07T12:20:40.564Z,98525.13
2019-05-07T12:23:12.183Z,98520.69
2019-05-07T12:25:42.623Z,98525.14
2019-05-07T12:28:13.412Z,98522.66
2019-05-07T12:31:03.393Z,98507.06
2019-05-07T12:34:07.817Z,98512.82
2019-05-07T12:36:38.207Z,98509.47
2019-05-07T12:39:10.012Z,98505.12
2019-05-07T12:41:41.891Z,98496.64
2019-05-07T12:44:13.137Z,98497.85
2019-05-07T12:46:43.538Z,98492.66
2019-05-07T12:49:13.815Z,98489.39
2019-05-07T12:52:02.407Z,98491.48
2019-05-07T12:54:52.466Z,98486.55
2019-05-07T12:57:22.838Z,98487.84
2019-05-07T12:59:54.139Z,98488.55
2019-05-07T13:02:49.611Z,98478.92
2019-05-07T13:05:21.992Z,98478.72
2019-05-07T13:07:54.326Z,98472.25
2019-05-07T13:10:25.585Z,98473.19
2019-05-07T13:12:55.884Z,98466.39
2019-05-07T13:15:28.089Z,98463.22
2019-05-07T13:17:58.165Z,98455.98
2019-05-07T13:20:29.468Z,98454.75
2019-05-07T13:23:00.097Z,98462.98
2019-05-07T13:25:32.275Z,98451.27
2019-05-07T13:28:02.704Z,98444.85
2019-05-07T13:30:33.303Z,98444.27
2019-05-07T13:33:05.409Z,98436.14
2019-05-07T13:35:36.114Z,98431.06
2019-05-07T13:38:32.329Z,98428.41
2019-05-07T13:41:31.535Z,98427.21
2019-05-07T13:44:22.727Z,98425.36
2019-05-07T13:47:12.534Z,98422.17
2019-05-07T13:49:42.893Z,98413.98
2019-05-07T13:52:13.303Z,98414.59
2019-05-07T13:54:44.094Z,98408.71
2019-05-07T13:57:15.586Z,98402.81
2019-05-07T13:59:46.269Z,98402.78
2019-05-07T14:02:18.602Z,98399.56
2019-05-07T14:04:49.206Z,98395.73
2019-05-07T14:07:23.239Z,98395.70
2019-05-07T14:09:54.493Z,98389.84
2019-05-07T14:12:24.998Z,98389.89
2019-05-07T14:14:55.749Z,98386.84
2019-05-07T14:17:25.973Z,98378.13
2019-05-07T14:19:56.329Z,98377.44
2019-05-07T14:22:26.658Z,98370.92
2019-05-07T14:24:58.830Z,98363.33
2019-05-07T14:27:29.161Z,98365.08
2019-05-07T14:30:02.777Z,98366.69
2019-05-07T14:32:43.069Z,98364.95
2019-05-07T14:35:32.520Z,98364.78
2019-05-07T14:38:13.634Z,98362.80
2019-05-07T14:40:42.669Z,98364.86
2019-05-07T14:43:19.357Z,98355.06
2019-05-07T14:45:52.196Z,98348.78
2019-05-07T14:48:22.683Z,98344.93
2019-05-07T14:50:53.195Z,98345.64
2019-05-07T14:53:23.750Z,98346.23
2019-05-07T14:55:55.004Z,98347.47
2019-05-07T14:58:25.484Z,98338.15
2019-05-07T15:00:55.690Z,98345.93
2019-05-07T15:03:27.264Z,98338.28
2019-05-07T15:05:57.483Z,98337.54
2019-05-07T15:08:27.815Z,98339.67
2019-05-07T15:10:58.114Z,98329.22
2019-05-07T15:13:28.906Z,98322.09
2019-05-07T15:15:59.761Z,98318.47
2019-05-07T15:18:48.550Z,98309.36
2019-05-07T15:21:18.900Z,98312.36
2019-05-07T15:23:49.818Z,98310.09
2019-05-07T15:26:22.050Z,98308.98
2019-05-07T15:29:01.047Z,98296.33
2019-05-07T15:31:48.911Z,98300.27
2019-05-07T15:34:19.641Z,98300.34
2019-05-07T15:36:49.865Z,98295.77
2019-05-07T15:39:22.283Z,98298.06
2019-05-07T15:41:52.987Z,98297.17
2019-05-07T15:44:23.754Z,98289.77
2019-05-07T15:46:55.934Z,98284.67
2019-05-07T15:49:26.706Z,98287.67
2019-05-07T15:51:59.225Z,98291.75
2019-05-07T15:54:29.814Z,98288.91
2019-05-07T15:57:03.323Z,98281.09
2019-05-07T15:59:33.540Z,98281.25
2019-05-07T16:02:12.335Z,98276.14
2019-05-07T16:04:42.972Z,98278.30
2019-05-07T16:07:13.562Z,98270.33
2019-05-07T16:09:44.110Z,98270.35
2019-05-07T16:12:17.602Z,98274.56
2019-05-07T16:14:47.925Z,98263.22
2019-05-07T16:17:29.442Z,98259.88
2019-05-07T16:20:00.082Z,98262.55
2019-05-07T16:22:35.681Z,98256.56
2019-05-07T16:25:07.414Z,98248.70
2019-05-07T16:27:44.814Z,98250.60
2019-05-07T16:30:15.422Z,98245.75
2019-05-07T16:32:45.651Z,98238.66
2019-05-07T16:35:16.428Z,98237.41
2019-05-07T16:37:46.853Z,98230.73
2019-05-07T16:40:17.549Z,98228.83
2019-05-07T16:42:47.768Z,98227.63
2019-05-07T16:45:18.612Z,98226.56
2019-05-07T16:47:48.840Z,98220.11
2019-05-07T16:50:22.172Z,98216.66
2019-05-07T16:52:52.442Z,98212.00
2019-05-07T16:55:25.645Z,98207.58
2019-05-07T16:58:12.835Z,98218.75
2019-05-07T17:00:46.283Z,98212.84
2019-05-07T17:03:21.154Z,98206.94
2019-05-07T17:05:52.425Z,98200.59
2019-05-07T17:08:51.661Z,98193.36
2019-05-07T17:11:22.602Z,98194.81
2019-05-07T17:13:53.051Z,98194.81
2019-05-07T17:16:23.472Z,98190.75
2019-05-07T17:18:54.092Z,98196.98
2019-05-07T17:21:25.255Z,98181.82
2019-05-07T17:23:55.526Z,98176.33
2019-05-07T17:26:26.173Z,98179.57
2019-05-07T17:28:56.472Z,98181.14
2019-05-07T17:31:26.803Z,98175.55
2019-05-07T17:33:57.216Z,98169.48
2019-05-07T17:36:27.630Z,98165.66
2019-05-07T17:38:57.930Z,98167.55
2019-05-07T17:41:28.304Z,98158.97
2019-05-07T17:43:58.977Z,98160.93
2019-05-07T17:46:29.588Z,98156.80
2019-05-07T17:48:59.927Z,98160.91
2019-05-07T17:51:52.454Z,98156.55
2019-05-07T17:54:22.620Z,98156.13
2019-05-07T17:56:52.974Z,98152.27
2019-05-07T17:59:23.689Z,98156.58
2019-05-07T18:02:32.689Z,98158.19
2019-05-07T18:05:03.250Z,98153.66
2019-05-07T18:07:36.804Z,98154.67
2019-05-07T18:10:08.228Z,98154.67
2019-05-07T18:12:39.737Z,98156.05
2019-05-07T18:15:12.640Z,98150.33
2019-05-07T18:17:48.022Z,98153.38
2019-05-07T18:20:18.368Z,98154.02
2019-05-07T18:22:48.670Z,98153.67
2019-05-07T18:25:19.011Z,98155.34
2019-05-07T18:27:49.310Z,98155.32
2019-05-07T18:30:19.675Z,98153.97
2019-05-07T18:32:55.764Z,98149.05
2019-05-07T18:35:26.188Z,98142.15
2019-05-07T18:37:56.522Z,98146.66
2019-05-07T18:40:28.117Z,98137.33
2019-05-07T18:42:58.412Z,98141.49
2019-05-07T18:45:28.821Z,98145.69
2019-05-07T18:47:59.925Z,98140.75
2019-05-07T18:50:32.442Z,98143.88
2019-05-07T18:53:02.841Z,98138.50
2019-05-07T18:55:33.424Z,98138.46
2019-05-07T18:58:03.810Z,98143.48
2019-05-07T19:00:37.671Z,98142.60
2019-05-07T19:03:08.529Z,98143.72
2019-05-07T19:05:38.863Z,98143.34
2019-05-07T19:08:09.388Z,98150.20
2019-05-07T19:10:40.250Z,98152.52
2019-05-07T19:13:10.763Z,98149.94
2019-05-07T19:15:42.018Z,98151.28
2019-05-07T19:18:13.971Z,98151.60
2019-05-07T19:20:44.362Z,98149.94
2019-05-07T19:23:14.583Z,98144.92
2019-05-07T19:25:44.858Z,98149.73
2019-05-07T19:28:16.277Z,98150.52
2019-05-07T19:30:47.046Z,98152.20
2019-05-07T19:33:17.348Z,98156.87
2019-05-07T19:35:47.972Z,98151.02
2019-05-07T19:38:18.810Z,98150.14
2019-05-07T19:40:50.186Z,98149.38
2019-05-07T19:43:20.630Z,98150.08
2019-05-07T19:45:52.338Z,98152.78
2019-05-07T19:48:23.296Z,98158.70
2019-05-07T19:50:54.140Z,98158.20
2019-05-07T19:53:25.198Z,98159.69
2019-05-07T19:56:08.186Z,98161.80
2019-05-07T19:58:38.491Z,98158.36
2019-05-07T20:01:12.133Z,98162.45
2019-05-07T20:03:43.423Z,98167.45
2019-05-07T20:06:14.103Z,98164.73
2019-05-07T20:08:44.601Z,98163.48
2019-05-07T20:11:33.869Z,98162.00
2019-05-07T20:14:04.113Z,98158.34
2019-05-07T20:16:34.865Z,98163.02
2019-05-07T20:19:05.584Z,98156.07
2019-05-07T20:21:36.035Z,98153.34
2019-05-07T20:24:06.647Z,98151.60
2019-05-07T20:26:37.416Z,98152.09
2019-05-07T20:29:08.214Z,98156.25
2019-05-07T20:31:38.621Z,98149.84
2019-05-07T20:34:08.905Z,98149.09
2019-05-07T20:36:39.415Z,98145.66
2019-05-07T20:39:10.055Z,98144.81
2019-05-07T20:41:40.358Z,98137.72
2019-05-07T20:44:11.926Z,98136.60
2019-05-07T20:46:43.427Z,98136.71
2019-05-07T20:49:14.127Z,98137.73
2019-05-07T20:51:44.736Z,98133.69
2019-05-07T20:54:23.040Z,98134.83
2019-05-07T20:57:02.423Z,98134.13
2019-05-07T20:59:32.967Z,98125.33
2019-05-07T21:02:03.595Z,98112.23
2019-05-07T21:04:33.810Z,98110.19
2019-05-07T21:07:04.497Z,98113.38
2019-05-07T21:09:35.333Z,98111.13
2019-05-07T21:12:05.551Z,98112.91
2019-05-07T21:14:35.805Z,98117.10
2019-05-07T21:17:06.263Z,98119.08
2019-05-07T21:19:36.574Z,98118.69
2019-05-07T21:22:07.152Z,98123.11
2019-05-07T21:24:39.127Z,98114.62
2019-05-07T21:27:12.031Z,98112.08
2019-05-07T21:29:42.255Z,98110.14
2019-05-07T21:32:13.724Z,98108.36
2019-05-07T21:34:43.976Z,98098.47
2019-05-07T21:37:14.219Z,98095.13
2019-05-07T21:39:44.429Z,98093.64
2019-05-07T21:42:15.884Z,98093.00
2019-05-07T21:44:47.364Z,98100.88
2019-05-07T21:47:17.663Z,98099.09
2019-05-07T21:49:48.447Z,98101.97
2019-05-07T21:52:18.745Z,98099.54
2019-05-07T21:55:02.458Z,98101.09
2019-05-07T21:57:40.685Z,98097.44
2019-05-07T22:00:32.352Z,98092.41
2019-05-07T22:03:08.978Z,98087.66
2019-05-07T22:05:44.094Z,98089.81
2019-05-07T22:08:12.551Z,98094.34
2019-05-07T22:10:42.890Z,98092.27
2019-05-07T22:13:13.149Z,98086.45
2019-05-07T22:15:43.788Z,98084.58
2019-05-07T22:18:14.327Z,98077.21
2019-05-07T22:20:44.577Z,98080.80
2019-05-07T22:23:15.155Z,98080.44
2019-05-07T22:25:45.436Z,98081.53
2019-05-07T22:28:15.821Z,98086.96
2019-05-07T22:31:06.103Z,98081.92
2019-05-07T22:33:44.071Z,98088.05
2019-05-07T22:36:14.376Z,98080.98
2019-05-07T22:38:49.140Z,98080.39
2019-05-07T22:41:22.431Z,98086.59
2019-05-07T22:43:54.001Z,98087.30
2019-05-07T22:46:24.273Z,98077.94
2019-05-07T22:48:54.554Z,98081.46
2019-05-07T22:51:24.841Z,98072.69
2019-05-07T22:53:55.100Z,98066.55
2019-05-07T22:56:35.144Z,98058.75
2019-05-07T22:58:59.023Z,98046.88
2019-05-07T23:01:29.310Z,98058.30
2019-05-07T23:03:59.578Z,98062.28
2019-05-07T23:06:29.856Z,98052.84
2019-05-07T23:09:01.964Z,98055.63
2019-05-07T23:11:33.951Z,98063.78
2019-05-07T23:14:04.276Z,98075.44
2019-05-07T23:16:35.550Z,98070.81
2019-05-07T23:19:05.836Z,98080.86
2019-05-07T23:21:38.202Z,98071.78
2019-05-07T23:24:08.427Z,98058.12
2019-05-07T23:26:49.699Z,98043.75
2019-05-07T23:29:11.862Z,98045.42
2019-05-07T23:31:42.229Z,98041.51
2019-05-07T23:34:12.767Z,98036.52
2019-05-07T23:36:42.967Z,98034.20
2019-05-07T23:39:15.028Z,98024.50
2019-05-07T23:41:58.709Z,98028.41
2019-05-07T23:44:29.262Z,98027.79
2019-05-07T23:46:59.887Z,98038.60
2019-05-07T23:49:32.104Z,98042.45
2019-05-07T23:52:02.526Z,98051.39
2019-05-07T23:54:33.527Z,98038.44
2019-05-07T23:57:08.773Z,98033.34
2019-05-07T23:59:36.122Z,98030.16
